Sea Hymn — D5MT5 — position and weather

sailwx.info

Track history (hours):
 
Tides and Currents Weather Stations Pressure Air Temp Water Temp Dewpoint Dewpoint Depression Visibility Wind Speed Wind Dir Waves Ship Positions

Sea Hymn

Last reported at 2017-Nov-30 13:59 UTC. Time now 2017-Dec-15 23:46 UTC.
Position N 01°16' E 103°55'.
Warning: this ship's position is 15 days out of date.

Length 250 m; draft 8.5 m.

Type: Tanker. MMSI: 636017795.

Date/timePositionNaut miles runAvg speedWind from/ knotsBaromVisibWave heightAir tempDewpointWater temp
2017-Nov-30 13:59N 01°16' E 103°55'0 0.1
2017-Nov-30 13:29N 01°16' E 103°55'0 0.1
2017-Nov-30 12:59N 01°16' E 103°55'0 0.0
2017-Nov-30 12:29N 01°16' E 103°55'0 0.0
2017-Nov-30 11:59N 01°16' E 103°55'0 0.1
2017-Nov-30 11:29N 01°16' E 103°55'0 0.0
2017-Nov-30 10:59N 01°16' E 103°55'0 0.0
2017-Nov-30 10:29N 01°16' E 103°55'0 0.0
2017-Nov-30 09:53N 01°16' E 103°55'0 0.0
2017-Nov-30 09:29N 01°16' E 103°55'0 0.1
2017-Nov-30 08:59N 01°16' E 103°55'0 0.1
2017-Nov-30 08:29N 01°16' E 103°55'0 0.1
2017-Nov-30 07:53N 01°16' E 103°55'0 0.1
2017-Nov-30 07:29N 01°16' E 103°55'0 0.0
2017-Nov-30 06:53N 01°16' E 103°55'0 0.0
2017-Nov-30 06:29N 01°16' E 103°55'0 0.0
2017-Nov-30 05:59N 01°16' E 103°55'0 0.0
2017-Nov-30 05:29N 01°16' E 103°55'0 0.1
2017-Nov-30 04:59N 01°16' E 103°55'0 0.1
2017-Nov-30 04:29N 01°16' E 103°55'0 0.0
2017-Nov-30 03:59N 01°16' E 103°55'0 0.0
2017-Nov-30 03:26N 01°16' E 103°55'0 0.0
2017-Nov-30 02:59N 01°16' E 103°55'0 0.1
2017-Nov-30 02:29N 01°16' E 103°55'0 0.1
2017-Nov-30 01:59N 01°16' E 103°55'0 0.2
2017-Nov-30 01:30N 01°16' E 103°55'2 3.4
2017-Nov-30 01:01N 01°15' E 103°57'1 2.7
2017-Nov-30 00:30N 01°14' E 103°57'1 3.0
2017-Nov-30 00:01N 01°13' E 103°56'2 3.1
2017-Nov-29 23:30N 01°12' E 103°54'4 7.7
2017-Nov-29 23:00N 01°11' E 103°51'4 8.5
2017-Nov-29 22:31N 01°09' E 103°47'4 8.2
2017-Nov-29 22:01N 01°06' E 103°44'4 7.3
2017-Nov-29 21:31N 01°03' E 103°41'3 6.9
2017-Nov-29 21:01N 01°03' E 103°38'4 8.6
2017-Nov-29 20:30N 01°05' E 103°34'4 8.7
2017-Nov-29 20:00N 01°07' E 103°31'4 8.9
2017-Nov-29 19:30N 01°10' E 103°27'4 8.7
2017-Nov-29 19:00N 01°12' E 103°23'4 8.5
2017-Nov-29 18:30N 01°15' E 103°20'5 9.9
2017-Nov-29 17:57N 01°19' E 103°16'  
2017-Nov-25 11:42N 01°17' E 103°22'313.4
2017-Nov-25 11:29N 01°15' E 103°24'612.6
2017-Nov-25 10:59N 01°13' E 103°30'612.1
2017-Nov-25 10:30N 01°12' E 103°36'611.3
2017-Nov-25 10:00N 01°10' E 103°41'5 9.9
2017-Nov-25 09:30N 01°10' E 103°46'5 9.7
2017-Nov-25 09:00N 01°12' E 103°50'4 7.8
2017-Nov-25 08:30N 01°13' E 103°54'5 9.4
2017-Nov-25 08:00N 01°15' E 103°58'611.9
2017-Nov-25 07:30N 01°16' E 104°04'  
Track history (hours):
 
Tides and Currents Weather Stations Pressure Air Temp Water Temp Dewpoint Dewpoint Depression Visibility Wind Speed Wind Dir Waves Ship Positions

Sea Hymn

Last reported at 2017-Nov-30 13:59 UTC. Time now 2017-Dec-15 23:46 UTC.
Position N 01°16' E 103°55'.
Warning: this ship's position is 15 days out of date.

Length 250 m; draft 8.5 m.

Type: Tanker. MMSI: 636017795.

Date/timePositionNaut miles runAvg speedWind from/ knotsBaromVisibWave heightAir tempDewpointWater temp
2017-Nov-30 13:59N 01°16' E 103°55'0 0.1
2017-Nov-30 13:29N 01°16' E 103°55'0 0.1
2017-Nov-30 12:59N 01°16' E 103°55'0 0.0
2017-Nov-30 12:29N 01°16' E 103°55'0 0.0
2017-Nov-30 11:59N 01°16' E 103°55'0 0.1
2017-Nov-30 11:29N 01°16' E 103°55'0 0.0
2017-Nov-30 10:59N 01°16' E 103°55'0 0.0
2017-Nov-30 10:29N 01°16' E 103°55'0 0.0
2017-Nov-30 09:53N 01°16' E 103°55'0 0.0
2017-Nov-30 09:29N 01°16' E 103°55'0 0.1
2017-Nov-30 08:59N 01°16' E 103°55'0 0.1
2017-Nov-30 08:29N 01°16' E 103°55'0 0.1
2017-Nov-30 07:53N 01°16' E 103°55'0 0.1
2017-Nov-30 07:29N 01°16' E 103°55'0 0.0
2017-Nov-30 06:53N 01°16' E 103°55'0 0.0
2017-Nov-30 06:29N 01°16' E 103°55'0 0.0
2017-Nov-30 05:59N 01°16' E 103°55'0 0.0
2017-Nov-30 05:29N 01°16' E 103°55'0 0.1
2017-Nov-30 04:59N 01°16' E 103°55'0 0.1
2017-Nov-30 04:29N 01°16' E 103°55'0 0.0
2017-Nov-30 03:59N 01°16' E 103°55'0 0.0
2017-Nov-30 03:26N 01°16' E 103°55'0 0.0
2017-Nov-30 02:59N 01°16' E 103°55'0 0.1
2017-Nov-30 02:29N 01°16' E 103°55'0 0.1
2017-Nov-30 01:59N 01°16' E 103°55'0 0.2
2017-Nov-30 01:30N 01°16' E 103°55'2 3.4
2017-Nov-30 01:01N 01°15' E 103°57'1 2.7
2017-Nov-30 00:30N 01°14' E 103°57'1 3.0
2017-Nov-30 00:01N 01°13' E 103°56'2 3.1
2017-Nov-29 23:30N 01°12' E 103°54'4 7.7
2017-Nov-29 23:00N 01°11' E 103°51'4 8.5
2017-Nov-29 22:31N 01°09' E 103°47'4 8.2
2017-Nov-29 22:01N 01°06' E 103°44'4 7.3
2017-Nov-29 21:31N 01°03' E 103°41'3 6.9
2017-Nov-29 21:01N 01°03' E 103°38'4 8.6
2017-Nov-29 20:30N 01°05' E 103°34'4 8.7
2017-Nov-29 20:00N 01°07' E 103°31'4 8.9
2017-Nov-29 19:30N 01°10' E 103°27'4 8.7
2017-Nov-29 19:00N 01°12' E 103°23'4 8.5
2017-Nov-29 18:30N 01°15' E 103°20'5 9.9
2017-Nov-29 17:57N 01°19' E 103°16'  
2017-Nov-25 11:42N 01°17' E 103°22'313.4
2017-Nov-25 11:29N 01°15' E 103°24'612.6
2017-Nov-25 10:59N 01°13' E 103°30'612.1
2017-Nov-25 10:30N 01°12' E 103°36'611.3
2017-Nov-25 10:00N 01°10' E 103°41'5 9.9
2017-Nov-25 09:30N 01°10' E 103°46'5 9.7
2017-Nov-25 09:00N 01°12' E 103°50'4 7.8
2017-Nov-25 08:30N 01°13' E 103°54'5 9.4
2017-Nov-25 08:00N 01°15' E 103°58'611.9
2017-Nov-25 07:30N 01°16' E 104°04'  

Dump ship's entire track history